Time;durP1;ratioP1;P1;durP2;ratioP2;P2;SDS_P1;SDS_P2;PMS_P1;PMS_P2;Temp;Humidity;BMP_temperature;BMP_pressure;BME280_temperature;BME280_humidity;BME280_pressure;Samples;Min_cycle;Max_cycle;Signal;HPM_P1;HPM_P2
2023/01/24 00:13:07;;;;;;;27.40;8.63;;;;;;;;;;4961606;28;20033;-95
2023/01/24 00:18:37;;;;;;;20.77;6.85;;;;;;;;;;4961546;28;20038;-94
2023/01/24 00:21:14;;;;;;;12.85;6.90;;;;;;;;;;4960643;28;20118;-95
2023/01/24 00:23:41;;;;;;;15.52;7.22;;;;;;;;;;4960347;28;20031;-94
2023/01/24 00:26:07;;;;;;;14.18;6.78;;;;;;;;;;4961066;29;20035;-95
2023/01/24 00:28:33;;;;;;;20.38;8.00;;;;;;;;;;4960318;29;20035;-93
2023/01/24 00:37:07;;;;;;;20.20;7.70;;;;;;;;;;4961333;29;20034;-94
2023/01/24 00:39:33;;;;;;;10.05;5.55;;;;;;;;;;4961288;29;20031;-96
2023/01/24 00:41:59;;;;;;;13.60;7.05;;;;;;;;;;4960189;29;20039;-96
2023/01/24 00:44:25;;;;;;;15.32;7.30;;;;;;;;;;4959939;29;20134;-95
2023/01/24 00:49:54;;;;;;;20.95;7.93;;;;;;;;;;4960873;29;20046;-95
2023/01/24 00:52:21;;;;;;;9.73;4.47;;;;;;;;;;4960780;29;20019;-94
2023/01/24 00:54:47;;;;;;;16.35;7.13;;;;;;;;;;4960783;28;20319;-95
2023/01/24 00:57:13;;;;;;;15.43;7.55;;;;;;;;;;4960672;29;20047;-95
2023/01/24 00:59:41;;;;;;;19.13;8.63;;;;;;;;;;4960898;29;20031;-96
2023/01/24 01:05:10;;;;;;;10.43;5.13;;;;;;;;;;4960739;29;20330;-94
2023/01/24 01:07:37;;;;;;;11.82;5.85;;;;;;;;;;4959802;28;20139;-94
2023/01/24 01:10:04;;;;;;;10.32;5.28;;;;;;;;;;4960189;29;20023;-94
2023/01/24 01:12:30;;;;;;;12.40;5.18;;;;;;;;;;4959877;29;20023;-95
2023/01/24 01:14:56;;;;;;;12.48;6.05;;;;;;;;;;4960677;29;20309;-93
2023/01/24 01:20:26;;;;;;;13.90;6.25;;;;;;;;;;4960775;29;20424;-94
2023/01/24 01:22:52;;;;;;;10.88;5.38;;;;;;;;;;4960147;29;20023;-95
2023/01/24 01:25:18;;;;;;;8.27;4.78;;;;;;;;;;4959426;28;20027;-94
2023/01/24 01:27:45;;;;;;;10.35;5.55;;;;;;;;;;4960022;28;20057;-96
2023/01/24 01:30:11;;;;;;;12.82;5.70;;;;;;;;;;4959063;28;20035;-94
2023/01/24 01:32:37;;;;;;;12.25;5.75;;;;;;;;;;4960262;28;20046;-93
2023/01/24 01:35:03;;;;;;;7.63;4.28;;;;;;;;;;4959466;28;20126;-93
2023/01/24 01:37:29;;;;;;;6.32;3.65;;;;;;;;;;4959977;29;20059;-94
2023/01/24 01:39:55;;;;;;;6.60;3.80;;;;;;;;;;4960406;29;20349;-94
2023/01/24 01:42:21;;;;;;;7.50;4.10;;;;;;;;;;4959025;28;20023;-94
2023/01/24 01:44:49;;;;;;;12.88;5.68;;;;;;;;;;4960181;29;20023;-94
2023/01/24 01:47:47;;;;;;;7.53;4.03;;;;;;;;;;4958870;29;20031;-94
2023/01/24 01:50:25;;;;;;;7.00;3.08;;;;;;;;;;4939031;29;20126;-93
2023/01/24 01:52:52;;;;;;;4.07;2.28;;;;;;;;;;4938901;29;20055;-93
2023/01/24 01:55:20;;;;;;;5.18;2.75;;;;;;;;;;4939001;29;20031;-94
2023/01/24 01:57:48;;;;;;;4.68;2.83;;;;;;;;;;4939072;29;20047;-93
2023/01/24 02:00:16;;;;;;;6.43;3.10;;;;;;;;;;4939212;29;20063;-95
2023/01/24 02:02:45;;;;;;;2.70;2.05;;;;;;;;;;4938938;29;20035;-93
2023/01/24 02:05:14;;;;;;;5.60;2.90;;;;;;;;;;4939123;29;20472;-95
2023/01/24 02:07:59;;;;;;;4.70;2.40;;;;;;;;;;4939128;29;20039;-94
2023/01/24 02:11:37;;;;;;;4.82;3.30;;;;;;;;;;4938877;29;20110;-94
2023/01/24 02:13:13;;;;;;;8.18;5.97;;;;;;;;;;4939121;29;20031;-93
2023/01/24 02:24:34;;;;;;;4.95;2.50;;;;;;;;;;4938674;29;20031;-93
2023/01/24 02:27:01;;;;;;;4.05;2.40;;;;;;;;;;4974389;28;20039;-94
2023/01/24 02:29:27;;;;;;;2.97;2.00;;;;;;;;;;4958514;28;20027;-93
2023/01/24 02:35:37;;;;;;;2.45;1.60;;;;;;;;;;4959471;29;20034;-93
2023/01/24 02:38:06;;;;;;;3.20;2.05;;;;;;;;;;4959363;29;20102;-94
2023/01/24 02:40:33;;;;;;;2.88;2.00;;;;;;;;;;4960404;28;20434;-94
2023/01/24 02:43:01;;;;;;;2.70;1.98;;;;;;;;;;4963131;28;20027;-93
2023/01/24 02:45:28;;;;;;;5.40;2.85;;;;;;;;;;4963093;29;20027;-93
2023/01/24 02:53:56;;;;;;;3.60;2.03;;;;;;;;;;4942296;29;20074;-95
2023/01/24 02:59:07;;;;;;;5.70;3.08;;;;;;;;;;4942749;29;20046;-94
2023/01/24 03:01:33;;;;;;;9.50;5.05;;;;;;;;;;4942470;29;20035;-94
2023/01/24 03:03:59;;;;;;;8.93;4.50;;;;;;;;;;4942098;29;20087;-96
2023/01/24 03:06:25;;;;;;;7.35;3.85;;;;;;;;;;4942029;29;20437;-93
2023/01/24 03:08:51;;;;;;;7.95;4.68;;;;;;;;;;4941666;29;20032;-93
2023/01/24 03:11:17;;;;;;;6.95;3.72;;;;;;;;;;4941696;29;20032;-94
2023/01/24 03:39:58;;;;;;;8.88;3.58;;;;;;;;;;4962360;29;20046;-96
2023/01/24 03:42:24;;;;;;;8.30;3.88;;;;;;;;;;4962052;28;20078;-94
2023/01/24 03:44:50;;;;;;;19.95;6.45;;;;;;;;;;4962427;28;20027;-95
2023/01/24 03:53:05;;;;;;;50.42;11.30;;;;;;;;;;4962117;29;20038;-95
2023/01/24 03:55:31;;;;;;;37.70;10.27;;;;;;;;;;4961761;28;20398;-94
2023/01/24 03:57:58;;;;;;;42.95;10.63;;;;;;;;;;4961059;28;20110;-93
2023/01/24 04:00:24;;;;;;;23.77;9.52;;;;;;;;;;4962162;29;20470;-94
2023/01/24 04:05:53;;;;;;;14.48;7.25;;;;;;;;;;4961905;29;20436;-95
2023/01/24 04:08:20;;;;;;;12.60;5.22;;;;;;;;;;4961611;28;20031;-93
2023/01/24 04:10:46;;;;;;;9.18;5.13;;;;;;;;;;4960649;28;20086;-93
2023/01/24 04:13:12;;;;;;;12.38;6.53;;;;;;;;;;4960579;28;20019;-95
2023/01/24 04:15:39;;;;;;;9.52;5.35;;;;;;;;;;4961375;29;20411;-96
2023/01/24 04:18:05;;;;;;;10.48;5.63;;;;;;;;;;4961776;29;20046;-94
2023/01/24 04:20:33;;;;;;;10.63;4.63;;;;;;;;;;4961224;29;20023;-95
2023/01/24 04:23:03;;;;;;;7.97;4.03;;;;;;;;;;4960475;28;20042;-94
2023/01/24 04:25:29;;;;;;;7.53;3.88;;;;;;;;;;4960961;28;20039;-96
2023/01/24 04:27:56;;;;;;;8.32;4.82;;;;;;;;;;4960403;28;20354;-93
2023/01/24 04:30:22;;;;;;;8.35;4.90;;;;;;;;;;4960124;28;20023;-94
2023/01/24 04:32:48;;;;;;;5.38;3.95;;;;;;;;;;4960862;29;20035;-95
2023/01/24 04:35:19;;;;;;;5.72;3.88;;;;;;;;;;4960317;29;20027;-93
2023/01/24 04:37:45;;;;;;;6.95;3.50;;;;;;;;;;4960466;28;20058;-93
2023/01/24 04:40:11;;;;;;;5.05;3.47;;;;;;;;;;4961337;29;20074;-94
2023/01/24 04:42:40;;;;;;;4.28;3.05;;;;;;;;;;4961300;28;20034;-94
2023/01/24 04:45:06;;;;;;;4.85;2.85;;;;;;;;;;4961150;29;20042;-94
2023/01/24 04:47:32;;;;;;;4.60;2.65;;;;;;;;;;4960911;29;20422;-93
2023/01/24 04:49:59;;;;;;;5.53;3.42;;;;;;;;;;4959878;29;20027;-94
2023/01/24 04:52:25;;;;;;;9.80;5.03;;;;;;;;;;4960331;29;20023;-93
2023/01/24 04:54:51;;;;;;;9.45;4.00;;;;;;;;;;4960579;29;20023;-92
2023/01/24 04:57:20;;;;;;;9.57;4.30;;;;;;;;;;4960583;29;20051;-94
2023/01/24 04:59:46;;;;;;;9.45;4.30;;;;;;;;;;4941808;29;20452;-92
2023/01/24 05:02:12;;;;;;;8.07;4.22;;;;;;;;;;4956755;29;20031;-91
2023/01/24 05:04:39;;;;;;;17.30;6.80;;;;;;;;;;4955780;29;20039;-92
2023/01/24 05:07:05;;;;;;;91.05;25.23;;;;;;;;;;4956509;29;20028;-92
2023/01/24 05:09:31;;;;;;;32.30;11.60;;;;;;;;;;4941253;29;20024;-92
2023/01/24 05:11:57;;;;;;;56.63;21.55;;;;;;;;;;4941261;29;20027;-92
2023/01/24 05:14:23;;;;;;;37.85;17.40;;;;;;;;;;4956632;29;20024;-91
2023/01/24 05:16:49;;;;;;;24.73;13.05;;;;;;;;;;4941232;29;20028;-93
2023/01/24 05:19:15;;;;;;;14.32;9.60;;;;;;;;;;4956233;29;20438;-92
2023/01/24 05:21:41;;;;;;;8.63;6.30;;;;;;;;;;4960149;28;20023;-93
2023/01/24 05:24:07;;;;;;;10.85;6.00;;;;;;;;;;4959222;29;20035;-92
2023/01/24 05:26:34;;;;;;;12.93;7.95;;;;;;;;;;4960130;29;20053;-93
2023/01/24 05:29:00;;;;;;;9.52;5.97;;;;;;;;;;4975269;28;20035;-94
2023/01/24 05:31:26;;;;;;;37.75;15.35;;;;;;;;;;4960337;29;20410;-93
2023/01/24 05:33:52;;;;;;;9.05;4.70;;;;;;;;;;4960512;29;20023;-93
2023/01/24 05:36:20;;;;;;;5.20;2.72;;;;;;;;;;4959917;29;20436;-92
2023/01/24 05:38:46;;;;;;;8.20;3.60;;;;;;;;;;4975408;28;20031;-93
2023/01/24 05:41:16;;;;;;;6.57;2.90;;;;;;;;;;4975084;28;20086;-93
2023/01/24 05:43:42;;;;;;;5.63;3.13;;;;;;;;;;4975120;28;20023;-92
2023/01/24 05:46:28;;;;;;;8.10;3.05;;;;;;;;;;4974889;28;20046;-92
2023/01/24 05:49:14;;;;;;;9.60;4.15;;;;;;;;;;4960116;28;20150;-91
2023/01/24 05:51:40;;;;;;;7.07;4.05;;;;;;;;;;4959849;28;20027;-94
2023/01/24 05:54:06;;;;;;;7.28;3.13;;;;;;;;;;4959867;29;20027;-93
2023/01/24 05:56:33;;;;;;;4.35;2.38;;;;;;;;;;4974740;28;20043;-92
2023/01/24 05:59:01;;;;;;;14.07;6.00;;;;;;;;;;4959909;28;20071;-93
2023/01/24 06:01:27;;;;;;;19.60;4.97;;;;;;;;;;4959847;28;20024;-92
2023/01/24 06:03:53;;;;;;;13.93;4.90;;;;;;;;;;4974944;28;20436;-95
2023/01/24 06:06:21;;;;;;;20.60;5.03;;;;;;;;;;4974757;28;20433;-91
2023/01/24 06:08:47;;;;;;;11.75;4.95;;;;;;;;;;4974709;28;20313;-93
2023/01/24 06:11:17;;;;;;;19.30;5.18;;;;;;;;;;4975020;28;20406;-91
2023/01/24 06:13:44;;;;;;;23.38;4.65;;;;;;;;;;4959787;28;20023;-92
2023/01/24 06:16:14;;;;;;;12.45;4.70;;;;;;;;;;4974162;28;20035;-93
2023/01/24 06:18:41;;;;;;;9.73;4.90;;;;;;;;;;4957568;28;20043;-92
2023/01/24 06:21:07;;;;;;;8.98;4.63;;;;;;;;;;4959694;29;20028;-92
2023/01/24 06:23:33;;;;;;;11.32;5.10;;;;;;;;;;4959874;28;20050;-92
2023/01/24 06:25:59;;;;;;;9.95;5.05;;;;;;;;;;4958533;28;20054;-93
2023/01/24 06:28:28;;;;;;;7.85;4.13;;;;;;;;;;4958449;28;20027;-92
2023/01/24 06:31:00;;;;;;;10.40;4.85;;;;;;;;;;4958510;28;20028;-92
2023/01/24 06:33:26;;;;;;;13.98;4.28;;;;;;;;;;4958743;28;20031;-92
2023/01/24 06:36:08;;;;;;;20.45;5.18;;;;;;;;;;4959776;28;20414;-92
2023/01/24 06:38:34;;;;;;;23.40;6.47;;;;;;;;;;4959551;29;20046;-93
2023/01/24 06:41:01;;;;;;;15.00;4.35;;;;;;;;;;4974477;28;20406;-93
2023/01/24 06:43:27;;;;;;;11.38;5.10;;;;;;;;;;4959349;28;20027;-91
2023/01/24 06:45:54;;;;;;;8.88;5.22;;;;;;;;;;4970773;28;20026;-91
2023/01/24 06:48:20;;;;;;;11.68;5.18;;;;;;;;;;4958229;28;20035;-92
2023/01/24 06:50:46;;;;;;;19.98;7.75;;;;;;;;;;4958709;28;20042;-92
2023/01/24 06:53:14;;;;;;;32.72;14.00;;;;;;;;;;4958513;28;20350;-92
2023/01/24 06:55:40;;;;;;;29.98;15.13;;;;;;;;;;4958928;28;20037;-93
2023/01/24 06:58:06;;;;;;;19.75;7.93;;;;;;;;;;4959660;29;20310;-90
2023/01/24 07:00:32;;;;;;;14.57;6.95;;;;;;;;;;4958818;28;20322;-92
2023/01/24 07:03:18;;;;;;;15.27;5.47;;;;;;;;;;4955631;28;20063;-92
2023/01/24 07:05:44;;;;;;;7.68;4.13;;;;;;;;;;4959273;28;20047;-89
2023/01/24 07:08:11;;;;;;;7.38;4.15;;;;;;;;;;4974377;28;20031;-91
2023/01/24 07:10:38;;;;;;;10.18;4.68;;;;;;;;;;4974117;28;20035;-90
2023/01/24 07:13:05;;;;;;;6.03;3.95;;;;;;;;;;4959425;28;20454;-90
2023/01/24 07:15:31;;;;;;;6.68;4.03;;;;;;;;;;4958477;28;20039;-90
2023/01/24 07:17:57;;;;;;;8.45;4.38;;;;;;;;;;4958194;28;20035;-91
2023/01/24 07:20:23;;;;;;;18.50;5.28;;;;;;;;;;4957930;28;20505;-90
2023/01/24 07:22:50;;;;;;;22.77;6.00;;;;;;;;;;4958393;29;20086;-91
2023/01/24 07:25:18;;;;;;;34.83;9.05;;;;;;;;;;4958865;28;20119;-90
2023/01/24 07:27:44;;;;;;;44.95;8.13;;;;;;;;;;4960899;28;20417;-89
2023/01/24 07:30:11;;;;;;;39.35;9.40;;;;;;;;;;4961849;28;20334;-90
2023/01/24 07:32:37;;;;;;;47.35;11.95;;;;;;;;;;4961221;28;20106;-89
2023/01/24 07:35:03;;;;;;;53.38;12.73;;;;;;;;;;4961306;28;20032;-88
2023/01/24 07:37:30;;;;;;;55.85;13.18;;;;;;;;;;4962014;29;20024;-89
2023/01/24 07:39:56;;;;;;;71.40;18.70;;;;;;;;;;4962178;28;20051;-90
2023/01/24 07:42:22;;;;;;;64.78;17.92;;;;;;;;;;4962006;28;20031;-88
2023/01/24 07:44:48;;;;;;;71.03;18.65;;;;;;;;;;4961914;28;20031;-89
2023/01/24 07:47:14;;;;;;;81.25;23.90;;;;;;;;;;4961245;28;20031;-89
2023/01/24 07:49:40;;;;;;;97.28;28.92;;;;;;;;;;4962319;28;20158;-90
2023/01/24 07:52:06;;;;;;;56.45;17.08;;;;;;;;;;4961908;28;20016;-88
2023/01/24 07:54:33;;;;;;;61.63;15.73;;;;;;;;;;4960943;28;20020;-89
2023/01/24 07:57:00;;;;;;;18.20;8.05;;;;;;;;;;4960937;28;20047;-88
2023/01/24 07:59:26;;;;;;;35.72;11.27;;;;;;;;;;4960948;28;20031;-88
2023/01/24 08:01:52;;;;;;;43.90;11.57;;;;;;;;;;4961146;28;20038;-89
2023/01/24 08:04:18;;;;;;;50.85;14.30;;;;;;;;;;4960857;28;20031;-88
2023/01/24 08:09:28;;;;;;;44.90;11.27;;;;;;;;;;4961819;28;20049;-88
2023/01/24 08:11:55;;;;;;;27.63;8.57;;;;;;;;;;4961584;29;20407;-88
2023/01/24 08:14:22;;;;;;;28.35;9.85;;;;;;;;;;4961436;28;20023;-87
2023/01/24 08:16:51;;;;;;;37.13;15.48;;;;;;;;;;4961686;29;20023;-90
2023/01/24 08:19:17;;;;;;;36.28;12.95;;;;;;;;;;4961355;29;20414;-88
2023/01/24 08:21:43;;;;;;;22.15;8.35;;;;;;;;;;4961677;28;20031;-88
2023/01/24 08:24:09;;;;;;;40.22;13.82;;;;;;;;;;4961054;28;20027;-94
2023/01/24 08:26:35;;;;;;;35.22;12.57;;;;;;;;;;4960863;28;20322;-92
2023/01/24 08:29:01;;;;;;;29.55;9.25;;;;;;;;;;4960638;28;20089;-91
2023/01/24 08:31:27;;;;;;;27.63;9.82;;;;;;;;;;4960345;28;20028;-92
2023/01/24 08:33:56;;;;;;;36.22;14.52;;;;;;;;;;4962933;28;20031;-95
2023/01/24 08:36:23;;;;;;;39.80;13.75;;;;;;;;;;4961375;28;20023;-95
2023/01/24 08:38:57;;;;;;;33.97;11.98;;;;;;;;;;4960443;28;20066;-95
2023/01/24 08:41:23;;;;;;;27.25;8.07;;;;;;;;;;4954593;28;20023;-90
2023/01/24 08:43:52;;;;;;;44.85;13.43;;;;;;;;;;4956132;28;20035;-90
2023/01/24 08:46:18;;;;;;;52.83;13.93;;;;;;;;;;4953669;28;20038;-91
2023/01/24 08:48:44;;;;;;;58.28;13.52;;;;;;;;;;4954417;28;20089;-94
2023/01/24 08:51:10;;;;;;;46.78;13.02;;;;;;;;;;4961113;28;20031;-92
2023/01/24 08:53:37;;;;;;;47.67;22.25;;;;;;;;;;4960750;28;20406;-91
2023/01/24 08:56:03;;;;;;;32.67;9.02;;;;;;;;;;4960765;29;20089;-90
2023/01/24 08:58:30;;;;;;;24.10;6.53;;;;;;;;;;4960662;29;20048;-92
2023/01/24 09:00:56;;;;;;;35.25;9.00;;;;;;;;;;4960858;28;20039;-92
2023/01/24 09:03:22;;;;;;;32.92;8.52;;;;;;;;;;4959693;28;20023;-92
2023/01/24 09:05:48;;;;;;;31.30;9.15;;;;;;;;;;4960529;28;20398;-92
2023/01/24 09:08:15;;;;;;;25.90;9.80;;;;;;;;;;4959818;29;20062;-91
2023/01/24 09:10:41;;;;;;;34.67;13.32;;;;;;;;;;4960434;28;20031;-91
2023/01/24 09:13:07;;;;;;;23.77;9.75;;;;;;;;;;4959449;28;20055;-91
2023/01/24 09:15:33;;;;;;;26.63;10.10;;;;;;;;;;4959504;28;20051;-91
2023/01/24 09:18:03;;;;;;;26.92;9.95;;;;;;;;;;4959404;28;20031;-90
2023/01/24 09:20:29;;;;;;;23.52;8.00;;;;;;;;;;4960478;28;20102;-91
2023/01/24 09:22:55;;;;;;;30.95;8.93;;;;;;;;;;4960463;29;20039;-91
2023/01/24 09:25:21;;;;;;;41.10;13.23;;;;;;;;;;4960182;28;20082;-91
2023/01/24 09:27:52;;;;;;;19.90;8.93;;;;;;;;;;4960172;28;20118;-91
2023/01/24 09:30:18;;;;;;;19.50;6.63;;;;;;;;;;4959252;29;20062;-91
2023/01/24 09:32:45;;;;;;;29.63;11.32;;;;;;;;;;4959167;28;20051;-92
2023/01/24 09:35:11;;;;;;;30.00;10.15;;;;;;;;;;4959272;29;20024;-90
2023/01/24 09:37:37;;;;;;;46.58;15.90;;;;;;;;;;4959082;28;20410;-91
2023/01/24 09:40:03;;;;;;;45.35;14.05;;;;;;;;;;4959307;29;20358;-90
2023/01/24 09:42:40;;;;;;;43.60;9.75;;;;;;;;;;4959861;28;20027;-91
2023/01/24 09:45:19;;;;;;;35.53;11.15;;;;;;;;;;4960150;28;20027;-90
2023/01/24 09:47:48;;;;;;;45.70;14.95;;;;;;;;;;4959158;28;20050;-90
2023/01/24 09:50:16;;;;;;;30.92;11.68;;;;;;;;;;4949012;28;20126;-90
2023/01/24 09:52:46;;;;;;;49.88;15.70;;;;;;;;;;4955758;29;20110;-91
2023/01/24 09:55:15;;;;;;;63.83;18.73;;;;;;;;;;4960647;28;20039;-90
2023/01/24 09:57:44;;;;;;;56.08;12.60;;;;;;;;;;4945475;29;20047;-90
2023/01/24 10:00:16;;;;;;;35.63;12.25;;;;;;;;;;4955829;29;20438;-90
2023/01/24 10:03:20;;;;;;;22.15;8.00;;;;;;;;;;4955679;29;20039;-91
2023/01/24 10:05:48;;;;;;;39.47;8.85;;;;;;;;;;4955716;29;20445;-90
2023/01/24 10:08:25;;;;;;;38.92;13.23;;;;;;;;;;4949001;29;20391;-91
2023/01/24 10:11:15;;;;;;;21.40;7.40;;;;;;;;;;4958753;28;20031;-92
2023/01/24 10:13:53;;;;;;;30.17;6.68;;;;;;;;;;4919514;29;20060;-91
2023/01/24 10:16:26;;;;;;;32.92;8.80;;;;;;;;;;4900886;29;20369;-90
2023/01/24 10:19:00;;;;;;;34.75;6.30;;;;;;;;;;4900775;29;20092;-90
2023/01/24 10:21:26;;;;;;;24.02;6.30;;;;;;;;;;4900843;29;20040;-89
2023/01/24 10:23:55;;;;;;;25.70;6.97;;;;;;;;;;4900834;29;20028;-90
2023/01/24 10:26:41;;;;;;;28.85;6.78;;;;;;;;;;4910280;29;20051;-90
2023/01/24 10:29:12;;;;;;;29.67;11.20;;;;;;;;;;4901309;29;20029;-90
2023/01/24 10:31:39;;;;;;;26.70;7.15;;;;;;;;;;4900733;29;20310;-92
2023/01/24 10:34:14;;;;;;;36.47;8.93;;;;;;;;;;4900596;29;20127;-91
2023/01/24 10:36:46;;;;;;;27.70;9.23;;;;;;;;;;4900846;29;20020;-90
2023/01/24 10:39:13;;;;;;;23.02;8.95;;;;;;;;;;4900836;29;20040;-90
2023/01/24 10:41:39;;;;;;;17.33;8.52;;;;;;;;;;4900661;29;20032;-91
2023/01/24 10:44:11;;;;;;;89.70;36.33;;;;;;;;;;4900799;29;20040;-90
2023/01/24 10:46:48;;;;;;;28.92;9.52;;;;;;;;;;4900641;29;20037;-91
2023/01/24 10:49:17;;;;;;;36.10;9.68;;;;;;;;;;4900613;29;20040;-92
2023/01/24 10:51:45;;;;;;;18.73;8.82;;;;;;;;;;4937924;29;20043;-90
2023/01/24 10:54:22;;;;;;;28.58;11.85;;;;;;;;;;4939789;29;20055;-92
2023/01/24 10:56:48;;;;;;;13.65;7.78;;;;;;;;;;4940174;29;20110;-91
2023/01/24 10:59:15;;;;;;;20.83;10.93;;;;;;;;;;4955177;29;20028;-90
2023/01/24 11:01:47;;;;;;;18.92;10.25;;;;;;;;;;4941437;29;20032;-91
2023/01/24 11:04:20;;;;;;;12.23;6.13;;;;;;;;;;4943948;29;20027;-90
2023/01/24 11:06:48;;;;;;;18.02;9.32;;;;;;;;;;4958610;29;20032;-91
2023/01/24 11:09:15;;;;;;;11.50;6.55;;;;;;;;;;4947003;28;20031;-90
2023/01/24 11:11:43;;;;;;;9.48;6.05;;;;;;;;;;4958774;28;20047;-90
2023/01/24 11:14:13;;;;;;;8.65;4.60;;;;;;;;;;4957798;29;20057;-91
2023/01/24 11:16:46;;;;;;;8.65;4.70;;;;;;;;;;4962811;29;20030;-91
2023/01/24 11:19:31;;;;;;;15.35;8.13;;;;;;;;;;4977807;28;20028;-90
2023/01/24 11:21:58;;;;;;;17.40;8.88;;;;;;;;;;4981797;28;20430;-90
2023/01/24 11:24:25;;;;;;;12.52;6.60;;;;;;;;;;4960928;28;20481;-90
2023/01/24 11:26:57;;;;;;;22.08;8.30;;;;;;;;;;4960729;28;20082;-91
2023/01/24 11:29:24;;;;;;;22.67;9.48;;;;;;;;;;4958400;29;20047;-91
2023/01/24 11:32:03;;;;;;;11.82;5.65;;;;;;;;;;4955234;28;20024;-91
2023/01/24 11:37:39;;;;;;;7.47;4.50;;;;;;;;;;4946015;29;20115;-90
2023/01/24 11:40:24;;;;;;;11.30;4.63;;;;;;;;;;4976280;28;20402;-91
2023/01/24 11:43:11;;;;;;;13.45;6.45;;;;;;;;;;4959520;29;20031;-91
2023/01/24 11:45:37;;;;;;;14.40;7.32;;;;;;;;;;4972647;28;20023;-92
2023/01/24 11:48:25;;;;;;;18.63;10.00;;;;;;;;;;4961027;28;20078;-91
2023/01/24 11:50:58;;;;;;;40.30;17.63;;;;;;;;;;4972009;28;20030;-92
2023/01/24 11:53:43;;;;;;;41.65;19.55;;;;;;;;;;4970818;28;20086;-91
2023/01/24 11:56:20;;;;;;;44.65;18.38;;;;;;;;;;4973831;28;20134;-90
2023/01/24 11:59:05;;;;;;;29.40;13.80;;;;;;;;;;4954092;29;20031;-90
2023/01/24 12:01:43;;;;;;;16.42;9.85;;;;;;;;;;4961189;28;20082;-91
2023/01/24 12:07:34;;;;;;;60.45;15.60;;;;;;;;;;4959004;29;20030;-91
2023/01/24 12:10:05;;;;;;;44.20;21.02;;;;;;;;;;4959983;29;20031;-91
2023/01/24 12:12:49;;;;;;;23.50;9.98;;;;;;;;;;4960004;28;20037;-88
2023/01/24 12:15:15;;;;;;;25.33;13.30;;;;;;;;;;4961856;29;20061;-91
2023/01/24 12:18:00;;;;;;;48.55;16.80;;;;;;;;;;4960569;28;20051;-90
2023/01/24 12:20:31;;;;;;;41.33;16.85;;;;;;;;;;4961393;29;20024;-91
2023/01/24 12:23:00;;;;;;;70.30;19.77;;;;;;;;;;4961799;29;20110;-90
2023/01/24 12:25:29;;;;;;;49.60;16.08;;;;;;;;;;4961428;28;20047;-90
2023/01/24 12:27:56;;;;;;;35.67;12.05;;;;;;;;;;4960352;28;20106;-90
2023/01/24 12:30:22;;;;;;;44.42;11.63;;;;;;;;;;4960291;28;20418;-91
2023/01/24 12:33:09;;;;;;;34.50;13.82;;;;;;;;;;4961212;28;20504;-90
2023/01/24 12:35:41;;;;;;;41.40;11.23;;;;;;;;;;4961176;28;20034;-90
2023/01/24 12:38:23;;;;;;;36.05;12.68;;;;;;;;;;4961308;28;20040;-91
2023/01/24 12:40:59;;;;;;;39.40;13.32;;;;;;;;;;4960325;28;20053;-90
2023/01/24 12:43:36;;;;;;;78.28;24.92;;;;;;;;;;4960113;28;20028;-90
2023/01/24 12:46:02;;;;;;;61.25;21.08;;;;;;;;;;4961383;28;20043;-91
2023/01/24 12:48:38;;;;;;;38.35;16.73;;;;;;;;;;4960954;29;20035;-90
2023/01/24 12:51:13;;;;;;;52.15;19.10;;;;;;;;;;4960858;28;20031;-91
2023/01/24 12:53:44;;;;;;;77.55;23.50;;;;;;;;;;4959913;28;20352;-91
2023/01/24 12:56:20;;;;;;;66.47;21.90;;;;;;;;;;4960829;28;20048;-91
2023/01/24 12:58:47;;;;;;;46.55;16.73;;;;;;;;;;4959945;29;20121;-90
2023/01/24 13:01:17;;;;;;;20.17;9.77;;;;;;;;;;4959990;28;20038;-90
2023/01/24 13:03:54;;;;;;;19.05;8.55;;;;;;;;;;4959715;28;20034;-90
2023/01/24 13:06:43;;;;;;;37.45;12.15;;;;;;;;;;4959838;28;20110;-90
2023/01/24 13:09:21;;;;;;;49.85;13.13;;;;;;;;;;4960241;28;20035;-90
2023/01/24 13:11:48;;;;;;;61.15;19.85;;;;;;;;;;4959579;28;20402;-90
2023/01/24 13:14:23;;;;;;;44.53;16.83;;;;;;;;;;4959580;28;20066;-91
2023/01/24 13:16:52;;;;;;;45.40;13.85;;;;;;;;;;4960459;28;20070;-90
2023/01/24 13:19:33;;;;;;;40.83;12.82;;;;;;;;;;4960647;28;20035;-91
2023/01/24 13:21:59;;;;;;;56.30;19.00;;;;;;;;;;4959364;28;20410;-90
2023/01/24 13:25:01;;;;;;;41.53;17.83;;;;;;;;;;4958582;28;20078;-90
2023/01/24 13:27:27;;;;;;;45.20;15.13;;;;;;;;;;4885974;29;20051;-90
2023/01/24 13:29:59;;;;;;;36.50;10.35;;;;;;;;;;4901504;29;20037;-90
2023/01/24 13:32:26;;;;;;;32.58;14.73;;;;;;;;;;4885984;29;20533;-90
2023/01/24 13:34:56;;;;;;;32.58;16.73;;;;;;;;;;4901645;29;20043;-90
2023/01/24 13:37:26;;;;;;;43.33;12.27;;;;;;;;;;4901509;29;20060;-91
2023/01/24 13:40:21;;;;;;;26.23;9.40;;;;;;;;;;4901400;29;20115;-91
2023/01/24 13:42:47;;;;;;;50.28;12.30;;;;;;;;;;4901360;29;20050;-90
2023/01/24 13:45:26;;;;;;;41.45;14.60;;;;;;;;;;4901292;29;20033;-90
2023/01/24 13:47:53;;;;;;;28.30;14.40;;;;;;;;;;4885661;29;20037;-90
2023/01/24 13:50:23;;;;;;;30.23;15.30;;;;;;;;;;4885490;29;20435;-90
2023/01/24 13:52:52;;;;;;;33.33;17.13;;;;;;;;;;4885608;29;20516;-91
2023/01/24 13:55:18;;;;;;;32.00;16.67;;;;;;;;;;4901108;29;20036;-90
2023/01/24 13:57:44;;;;;;;33.85;14.95;;;;;;;;;;4901047;29;20336;-89
2023/01/24 14:00:13;;;;;;;22.30;12.38;;;;;;;;;;4901084;28;20036;-93
2023/01/24 14:02:41;;;;;;;21.85;11.60;;;;;;;;;;4959829;28;20039;-90
2023/01/24 14:05:26;;;;;;;263.38;146.95;;;;;;;;;;4959558;28;20027;-90
2023/01/24 14:07:52;;;;;;;156.13;84.43;;;;;;;;;;4959491;28;20028;-89
2023/01/24 14:10:18;;;;;;;112.60;58.47;;;;;;;;;;4958560;29;20027;-90
2023/01/24 14:12:53;;;;;;;477.65;231.50;;;;;;;;;;4959601;29;20027;-86
2023/01/24 14:15:22;;;;;;;269.65;108.63;;;;;;;;;;4959975;29;20043;-86
2023/01/24 14:17:49;;;;;;;392.00;150.20;;;;;;;;;;4958508;28;20028;-86
2023/01/24 14:20:31;;;;;;;119.22;45.45;;;;;;;;;;4959480;28;20094;-85
2023/01/24 14:23:00;;;;;;;138.25;54.65;;;;;;;;;;4958487;28;20038;-85
2023/01/24 14:25:26;;;;;;;1521.43;697.88;;;;;;;;;;4959541;28;20043;-85
2023/01/24 14:27:55;;;;;;;167.23;67.18;;;;;;;;;;4959499;28;20365;-85
2023/01/24 14:30:31;;;;;;;298.60;125.32;;;;;;;;;;4959244;28;20031;-86
2023/01/24 14:32:59;;;;;;;165.93;75.78;;;;;;;;;;4959463;28;20031;-85
2023/01/24 14:35:28;;;;;;;392.15;199.07;;;;;;;;;;4960491;28;20026;-85
2023/01/24 14:37:55;;;;;;;417.10;203.15;;;;;;;;;;4962433;29;20410;-86
2023/01/24 14:40:22;;;;;;;727.75;419.98;;;;;;;;;;4963369;29;20055;-86
2023/01/24 14:43:07;;;;;;;380.45;192.93;;;;;;;;;;4963152;28;20414;-86
2023/01/24 14:45:34;;;;;;;90.07;45.47;;;;;;;;;;4963463;28;20035;-85
2023/01/24 14:48:02;;;;;;;104.40;46.22;;;;;;;;;;4962195;29;20034;-85
2023/01/24 14:50:32;;;;;;;371.80;188.68;;;;;;;;;;4963092;28;20028;-86
2023/01/24 14:52:58;;;;;;;90.03;41.75;;;;;;;;;;4962484;28;20177;-85
2023/01/24 14:55:27;;;;;;;192.15;92.28;;;;;;;;;;4962449;28;20042;-86
2023/01/24 14:57:53;;;;;;;543.42;293.75;;;;;;;;;;4961859;29;20047;-86
2023/01/24 15:00:23;;;;;;;185.60;87.50;;;;;;;;;;4963056;28;20033;-85
2023/01/24 15:02:56;;;;;;;113.95;48.55;;;;;;;;;;4961942;28;20050;-86
2023/01/24 15:05:24;;;;;;;163.00;62.20;;;;;;;;;;4962163;28;20031;-86
2023/01/24 15:07:50;;;;;;;159.25;63.10;;;;;;;;;;4961998;28;20436;-87
2023/01/24 15:10:16;;;;;;;76.00;32.33;;;;;;;;;;4962874;28;20062;-85
2023/01/24 15:12:42;;;;;;;66.40;25.73;;;;;;;;;;4962973;28;20402;-86
2023/01/24 15:15:15;;;;;;;206.43;89.00;;;;;;;;;;4962355;29;20318;-85
2023/01/24 15:17:46;;;;;;;82.85;34.03;;;;;;;;;;4962676;29;20426;-87
2023/01/24 15:20:16;;;;;;;90.80;35.88;;;;;;;;;;4962728;28;20110;-86
2023/01/24 15:22:42;;;;;;;56.58;19.42;;;;;;;;;;4962808;28;20031;-87
2023/01/24 15:25:21;;;;;;;99.25;38.83;;;;;;;;;;4962076;28;20035;-87
2023/01/24 15:27:48;;;;;;;133.30;49.08;;;;;;;;;;4962440;28;20031;-87
2023/01/24 15:30:20;;;;;;;66.75;31.00;;;;;;;;;;4962527;28;20027;-86
2023/01/24 15:32:58;;;;;;;78.70;33.53;;;;;;;;;;4962433;28;20027;-86
2023/01/24 15:35:39;;;;;;;85.05;35.45;;;;;;;;;;4970800;28;20126;-87
2023/01/24 15:38:20;;;;;;;75.95;22.75;;;;;;;;;;4981784;28;20039;-87
2023/01/24 15:40:54;;;;;;;100.90;33.58;;;;;;;;;;4981459;28;20050;-87
2023/01/24 15:43:46;;;;;;;137.63;37.97;;;;;;;;;;4981524;28;20041;-87
2023/01/24 15:49:01;;;;;;;80.78;29.45;;;;;;;;;;4981178;28;20041;-87
2023/01/24 15:51:31;;;;;;;52.30;22.33;;;;;;;;;;4996664;28;20030;-86
2023/01/24 15:53:57;;;;;;;80.85;31.98;;;;;;;;;;4981368;28;20069;-87
2023/01/24 15:56:23;;;;;;;66.40;28.05;;;;;;;;;;4996217;28;20054;-87
2023/01/24 15:58:51;;;;;;;37.30;16.20;;;;;;;;;;4995668;28;20069;-87
2023/01/24 16:01:17;;;;;;;44.85;19.48;;;;;;;;;;4959136;29;20425;-87
2023/01/24 16:03:43;;;;;;;69.60;26.58;;;;;;;;;;4961980;28;20027;-88
2023/01/24 16:06:09;;;;;;;130.48;46.45;;;;;;;;;;4960906;28;20023;-87
2023/01/24 16:08:35;;;;;;;154.70;57.35;;;;;;;;;;4960781;28;20029;-87
2023/01/24 16:11:01;;;;;;;98.32;39.70;;;;;;;;;;4961588;29;20074;-88
2023/01/24 16:13:29;;;;;;;76.72;32.35;;;;;;;;;;4961929;29;20030;-88
2023/01/24 16:15:55;;;;;;;52.88;22.48;;;;;;;;;;4961790;28;20050;-87
2023/01/24 16:21:25;;;;;;;192.60;56.08;;;;;;;;;;4961561;29;20448;-88